sensor_id;sensor_type;location;lat;lon;timestamp;temperature;humidity
47590;DHT22;33316;52.298;9.056;2023-02-28T00:00:40;1.70;80.60
47590;DHT22;33316;52.298;9.056;2023-02-28T00:03:11;1.80;80.80
47590;DHT22;33316;52.298;9.056;2023-02-28T00:05:37;1.70;80.70
47590;DHT22;33316;52.298;9.056;2023-02-28T00:08:06;1.70;80.80
47590;DHT22;33316;52.298;9.056;2023-02-28T00:10:33;1.70;80.80
47590;DHT22;33316;52.298;9.056;2023-02-28T00:13:01;1.70;80.80
47590;DHT22;33316;52.298;9.056;2023-02-28T00:15:28;1.70;80.80
47590;DHT22;33316;52.298;9.056;2023-02-28T00:17:54;1.70;80.90
47590;DHT22;33316;52.298;9.056;2023-02-28T00:20:22;1.70;80.90
47590;DHT22;33316;52.298;9.056;2023-02-28T00:22:50;1.70;80.90
47590;DHT22;33316;52.298;9.056;2023-02-28T00:25:18;1.60;80.80
47590;DHT22;33316;52.298;9.056;2023-02-28T00:27:45;1.60;80.80
47590;DHT22;33316;52.298;9.056;2023-02-28T00:30:13;1.60;80.90
47590;DHT22;33316;52.298;9.056;2023-02-28T00:32:40;1.50;81.00
47590;DHT22;33316;52.298;9.056;2023-02-28T00:35:07;1.50;80.90
47590;DHT22;33316;52.298;9.056;2023-02-28T00:37:35;1.50;81.00
47590;DHT22;33316;52.298;9.056;2023-02-28T00:40:02;1.50;81.00
47590;DHT22;33316;52.298;9.056;2023-02-28T00:42:31;1.40;81.00
47590;DHT22;33316;52.298;9.056;2023-02-28T00:44:58;1.40;81.10
47590;DHT22;33316;52.298;9.056;2023-02-28T00:47:25;1.30;81.20
47590;DHT22;33316;52.298;9.056;2023-02-28T00:49:51;1.30;81.30
47590;DHT22;33316;52.298;9.056;2023-02-28T00:52:18;1.30;81.40
47590;DHT22;33316;52.298;9.056;2023-02-28T00:54:46;1.30;81.40
47590;DHT22;33316;52.298;9.056;2023-02-28T00:57:12;1.30;81.60
47590;DHT22;33316;52.298;9.056;2023-02-28T00:59:39;1.30;81.60
47590;DHT22;33316;52.298;9.056;2023-02-28T01:02:05;1.30;81.60
47590;DHT22;33316;52.298;9.056;2023-02-28T01:04:32;1.30;81.70
47590;DHT22;33316;52.298;9.056;2023-02-28T01:06:58;1.30;81.80
47590;DHT22;33316;52.298;9.056;2023-02-28T01:09:25;1.30;81.80
47590;DHT22;33316;52.298;9.056;2023-02-28T01:11:53;1.20;81.80
47590;DHT22;33316;52.298;9.056;2023-02-28T01:14:19;1.30;82.00
47590;DHT22;33316;52.298;9.056;2023-02-28T01:16:46;1.30;82.00
47590;DHT22;33316;52.298;9.056;2023-02-28T01:19:13;1.20;81.90
47590;DHT22;33316;52.298;9.056;2023-02-28T01:21:40;1.20;81.90
47590;DHT22;33316;52.298;9.056;2023-02-28T01:24:06;1.30;82.00
47590;DHT22;33316;52.298;9.056;2023-02-28T01:26:33;1.20;81.80
47590;DHT22;33316;52.298;9.056;2023-02-28T01:29:01;1.20;81.90
47590;DHT22;33316;52.298;9.056;2023-02-28T01:31:28;1.20;81.90
47590;DHT22;33316;52.298;9.056;2023-02-28T01:33:54;1.20;82.00
47590;DHT22;33316;52.298;9.056;2023-02-28T01:36:21;1.10;81.90
47590;DHT22;33316;52.298;9.056;2023-02-28T01:38:49;1.10;81.90
47590;DHT22;33316;52.298;9.056;2023-02-28T01:41:16;1.10;81.80
47590;DHT22;33316;52.298;9.056;2023-02-28T01:43:54;1.10;81.60
47590;DHT22;33316;52.298;9.056;2023-02-28T01:46:22;1.10;81.50
47590;DHT22;33316;52.298;9.056;2023-02-28T01:48:50;1.10;81.50
47590;DHT22;33316;52.298;9.056;2023-02-28T01:51:18;1.00;81.70
47590;DHT22;33316;52.298;9.056;2023-02-28T01:53:47;1.00;81.60
47590;DHT22;33316;52.298;9.056;2023-02-28T01:56:16;1.00;81.80
47590;DHT22;33316;52.298;9.056;2023-02-28T01:58:45;0.90;81.80
47590;DHT22;33316;52.298;9.056;2023-02-28T02:01:12;0.90;81.80
47590;DHT22;33316;52.298;9.056;2023-02-28T02:03:47;0.90;81.90
47590;DHT22;33316;52.298;9.056;2023-02-28T02:06:17;0.90;82.00
47590;DHT22;33316;52.298;9.056;2023-02-28T02:08:44;0.90;82.10
47590;DHT22;33316;52.298;9.056;2023-02-28T02:11:11;0.80;82.20
47590;DHT22;33316;52.298;9.056;2023-02-28T02:13:44;0.80;82.20
47590;DHT22;33316;52.298;9.056;2023-02-28T02:16:18;0.80;82.30
47590;DHT22;33316;52.298;9.056;2023-02-28T02:18:51;0.80;82.30
47590;DHT22;33316;52.298;9.056;2023-02-28T02:24:03;0.80;82.60
47590;DHT22;33316;52.298;9.056;2023-02-28T02:26:44;0.80;82.60
47590;DHT22;33316;52.298;9.056;2023-02-28T02:32:19;0.80;82.70
47590;DHT22;33316;52.298;9.056;2023-02-28T02:34:52;0.80;82.70
47590;DHT22;33316;52.298;9.056;2023-02-28T02:37:24;0.70;82.70
47590;DHT22;33316;52.298;9.056;2023-02-28T02:39:59;0.80;82.80
47590;DHT22;33316;52.298;9.056;2023-02-28T02:42:27;0.80;82.80
47590;DHT22;33316;52.298;9.056;2023-02-28T02:44:55;0.70;82.80
47590;DHT22;33316;52.298;9.056;2023-02-28T02:47:24;0.70;82.80
47590;DHT22;33316;52.298;9.056;2023-02-28T02:49:53;0.70;82.90
47590;DHT22;33316;52.298;9.056;2023-02-28T02:52:22;0.70;82.80
47590;DHT22;33316;52.298;9.056;2023-02-28T02:54:50;0.70;82.80
47590;DHT22;33316;52.298;9.056;2023-02-28T02:57:20;0.70;82.70
47590;DHT22;33316;52.298;9.056;2023-02-28T02:59:48;0.60;82.60
47590;DHT22;33316;52.298;9.056;2023-02-28T03:02:16;0.60;82.60
47590;DHT22;33316;52.298;9.056;2023-02-28T03:04:45;0.60;82.70
47590;DHT22;33316;52.298;9.056;2023-02-28T03:07:13;0.60;82.80
47590;DHT22;33316;52.298;9.056;2023-02-28T03:09:40;0.60;83.60
47590;DHT22;33316;52.298;9.056;2023-02-28T03:12:09;0.50;83.00
47590;DHT22;33316;52.298;9.056;2023-02-28T03:14:40;0.50;83.10
47590;DHT22;33316;52.298;9.056;2023-02-28T03:17:16;0.50;83.10
47590;DHT22;33316;52.298;9.056;2023-02-28T03:19:46;0.40;83.00
47590;DHT22;33316;52.298;9.056;2023-02-28T03:22:21;0.40;83.10
47590;DHT22;33316;52.298;9.056;2023-02-28T03:24:50;0.40;83.10
47590;DHT22;33316;52.298;9.056;2023-02-28T03:27:21;0.40;83.10
47590;DHT22;33316;52.298;9.056;2023-02-28T03:29:50;0.40;83.10
47590;DHT22;33316;52.298;9.056;2023-02-28T03:32:21;0.30;83.00
47590;DHT22;33316;52.298;9.056;2023-02-28T03:34:50;0.30;83.00
47590;DHT22;33316;52.298;9.056;2023-02-28T03:37:22;0.30;83.00
47590;DHT22;33316;52.298;9.056;2023-02-28T03:39:50;0.30;82.90
47590;DHT22;33316;52.298;9.056;2023-02-28T03:42:20;0.30;82.90
47590;DHT22;33316;52.298;9.056;2023-02-28T03:44:49;0.20;82.80
47590;DHT22;33316;52.298;9.056;2023-02-28T03:47:17;0.20;82.90
47590;DHT22;33316;52.298;9.056;2023-02-28T03:49:49;0.20;82.90
47590;DHT22;33316;52.298;9.056;2023-02-28T03:52:17;0.10;82.90
47590;DHT22;33316;52.298;9.056;2023-02-28T03:54:47;0.10;82.90
47590;DHT22;33316;52.298;9.056;2023-02-28T03:57:15;0.10;82.90
47590;DHT22;33316;52.298;9.056;2023-02-28T03:59:46;0.10;82.90
47590;DHT22;33316;52.298;9.056;2023-02-28T04:02:14;0.10;82.90
47590;DHT22;33316;52.298;9.056;2023-02-28T04:04:40;0.00;82.90
47590;DHT22;33316;52.298;9.056;2023-02-28T04:07:14;0.00;82.90
47590;DHT22;33316;52.298;9.056;2023-02-28T04:09:40;0.00;82.90
47590;DHT22;33316;52.298;9.056;2023-02-28T04:12:08;0.00;83.00
47590;DHT22;33316;52.298;9.056;2023-02-28T04:14:35;0.00;83.00
47590;DHT22;33316;52.298;9.056;2023-02-28T04:17:02;-0.10;82.90
47590;DHT22;33316;52.298;9.056;2023-02-28T04:19:28;-0.10;82.80
47590;DHT22;33316;52.298;9.056;2023-02-28T04:21:55;-0.10;82.80
47590;DHT22;33316;52.298;9.056;2023-02-28T04:24:23;-0.10;82.70
47590;DHT22;33316;52.298;9.056;2023-02-28T04:26:50;-0.20;82.50
47590;DHT22;33316;52.298;9.056;2023-02-28T04:29:19;-0.20;82.60
47590;DHT22;33316;52.298;9.056;2023-02-28T04:31:47;-0.20;82.70
47590;DHT22;33316;52.298;9.056;2023-02-28T04:34:14;-0.20;82.80
47590;DHT22;33316;52.298;9.056;2023-02-28T04:36:40;-0.30;83.60
47590;DHT22;33316;52.298;9.056;2023-02-28T04:39:07;-0.30;82.90
47590;DHT22;33316;52.298;9.056;2023-02-28T04:41:34;-0.30;82.90
47590;DHT22;33316;52.298;9.056;2023-02-28T04:44:01;-0.30;82.90
47590;DHT22;33316;52.298;9.056;2023-02-28T04:46:29;-0.30;82.90
47590;DHT22;33316;52.298;9.056;2023-02-28T04:48:56;-0.30;82.90
47590;DHT22;33316;52.298;9.056;2023-02-28T04:51:23;-0.40;82.90
47590;DHT22;33316;52.298;9.056;2023-02-28T04:53:49;-0.40;82.90
47590;DHT22;33316;52.298;9.056;2023-02-28T04:56:17;-0.40;82.90
47590;DHT22;33316;52.298;9.056;2023-02-28T04:58:44;-0.50;82.70
47590;DHT22;33316;52.298;9.056;2023-02-28T05:01:18;-0.40;82.90
47590;DHT22;33316;52.298;9.056;2023-02-28T05:03:46;-0.50;83.00
47590;DHT22;33316;52.298;9.056;2023-02-28T05:06:13;-0.50;83.20
47590;DHT22;33316;52.298;9.056;2023-02-28T05:08:39;-0.50;83.00
47590;DHT22;33316;52.298;9.056;2023-02-28T05:11:07;-0.50;82.90
47590;DHT22;33316;52.298;9.056;2023-02-28T05:13:33;-0.60;82.90
47590;DHT22;33316;52.298;9.056;2023-02-28T05:16:01;-0.60;82.90
47590;DHT22;33316;52.298;9.056;2023-02-28T05:18:27;-0.60;82.90
47590;DHT22;33316;52.298;9.056;2023-02-28T05:20:55;-0.60;83.00
47590;DHT22;33316;52.298;9.056;2023-02-28T05:23:22;-0.70;83.00
47590;DHT22;33316;52.298;9.056;2023-02-28T05:25:48;-0.70;83.10
47590;DHT22;33316;52.298;9.056;2023-02-28T05:28:17;-0.70;83.20
47590;DHT22;33316;52.298;9.056;2023-02-28T05:30:44;-0.70;83.20
47590;DHT22;33316;52.298;9.056;2023-02-28T05:33:11;-0.70;83.10
47590;DHT22;33316;52.298;9.056;2023-02-28T05:35:38;-0.70;83.10
47590;DHT22;33316;52.298;9.056;2023-02-28T05:38:06;-0.80;83.00
47590;DHT22;33316;52.298;9.056;2023-02-28T05:40:32;-0.80;82.80
47590;DHT22;33316;52.298;9.056;2023-02-28T05:42:59;-0.80;82.70
47590;DHT22;33316;52.298;9.056;2023-02-28T05:45:26;-0.80;82.70
47590;DHT22;33316;52.298;9.056;2023-02-28T05:47:53;-0.80;82.60
47590;DHT22;33316;52.298;9.056;2023-02-28T05:50:19;-0.90;82.60
47590;DHT22;33316;52.298;9.056;2023-02-28T05:52:48;-0.90;82.60
47590;DHT22;33316;52.298;9.056;2023-02-28T05:55:16;-0.90;82.70
47590;DHT22;33316;52.298;9.056;2023-02-28T05:57:43;-0.90;82.80
47590;DHT22;33316;52.298;9.056;2023-02-28T06:00:10;-1.00;82.80
47590;DHT22;33316;52.298;9.056;2023-02-28T06:02:38;-1.00;83.00
47590;DHT22;33316;52.298;9.056;2023-02-28T06:05:05;-1.00;82.90
47590;DHT22;33316;52.298;9.056;2023-02-28T06:07:32;-1.00;83.00
47590;DHT22;33316;52.298;9.056;2023-02-28T06:09:59;-1.00;83.00
47590;DHT22;33316;52.298;9.056;2023-02-28T06:12:26;-1.00;83.00
47590;DHT22;33316;52.298;9.056;2023-02-28T06:14:53;-1.10;83.00
47590;DHT22;33316;52.298;9.056;2023-02-28T06:17:19;-1.10;83.00
47590;DHT22;33316;52.298;9.056;2023-02-28T06:19:46;-1.10;82.90
47590;DHT22;33316;52.298;9.056;2023-02-28T06:22:13;-1.10;83.00
47590;DHT22;33316;52.298;9.056;2023-02-28T06:24:39;-1.10;82.90
47590;DHT22;33316;52.298;9.056;2023-02-28T06:27:06;-1.10;83.00
47590;DHT22;33316;52.298;9.056;2023-02-28T06:29:34;-1.10;83.00
47590;DHT22;33316;52.298;9.056;2023-02-28T06:32:01;-1.10;83.90
47590;DHT22;33316;52.298;9.056;2023-02-28T06:34:28;-1.10;83.20
47590;DHT22;33316;52.298;9.056;2023-02-28T06:36:54;-1.00;83.40
47590;DHT22;33316;52.298;9.056;2023-02-28T06:39:21;-1.00;83.40
47590;DHT22;33316;52.298;9.056;2023-02-28T06:41:47;-0.90;83.30
47590;DHT22;33316;52.298;9.056;2023-02-28T06:44:14;-0.90;83.10
47590;DHT22;33316;52.298;9.056;2023-02-28T06:46:43;-0.80;83.20
47590;DHT22;33316;52.298;9.056;2023-02-28T06:49:10;-0.80;83.10
47590;DHT22;33316;52.298;9.056;2023-02-28T06:51:37;-0.70;83.00
47590;DHT22;33316;52.298;9.056;2023-02-28T06:54:04;-0.70;82.80
47590;DHT22;33316;52.298;9.056;2023-02-28T06:56:34;-0.60;82.80
47590;DHT22;33316;52.298;9.056;2023-02-28T06:59:01;-0.50;82.80
47590;DHT22;33316;52.298;9.056;2023-02-28T07:01:28;-0.50;82.60
47590;DHT22;33316;52.298;9.056;2023-02-28T07:03:58;-0.30;82.70
47590;DHT22;33316;52.298;9.056;2023-02-28T07:06:25;-0.30;82.60
47590;DHT22;33316;52.298;9.056;2023-02-28T07:08:52;-0.20;82.50
47590;DHT22;33316;52.298;9.056;2023-02-28T07:11:19;-0.20;82.40
47590;DHT22;33316;52.298;9.056;2023-02-28T07:13:47;-0.10;82.40
47590;DHT22;33316;52.298;9.056;2023-02-28T07:16:14;0.00;82.50
47590;DHT22;33316;52.298;9.056;2023-02-28T07:18:40;0.00;82.40
47590;DHT22;33316;52.298;9.056;2023-02-28T07:21:09;0.10;82.40
47590;DHT22;33316;52.298;9.056;2023-02-28T07:23:36;0.20;82.40
47590;DHT22;33316;52.298;9.056;2023-02-28T07:26:04;0.30;82.50
47590;DHT22;33316;52.298;9.056;2023-02-28T07:28:31;0.20;82.50
47590;DHT22;33316;52.298;9.056;2023-02-28T07:31:02;0.30;82.60
47590;DHT22;33316;52.298;9.056;2023-02-28T07:33:28;0.30;82.60
47590;DHT22;33316;52.298;9.056;2023-02-28T07:35:59;0.40;82.70
47590;DHT22;33316;52.298;9.056;2023-02-28T07:38:27;0.40;82.70
47590;DHT22;33316;52.298;9.056;2023-02-28T07:40:54;0.50;82.80
47590;DHT22;33316;52.298;9.056;2023-02-28T07:43:20;0.60;82.70
47590;DHT22;33316;52.298;9.056;2023-02-28T07:45:47;0.70;82.80
47590;DHT22;33316;52.298;9.056;2023-02-28T07:48:13;0.80;82.80
47590;DHT22;33316;52.298;9.056;2023-02-28T07:50:40;0.80;82.80
47590;DHT22;33316;52.298;9.056;2023-02-28T07:53:06;0.90;82.80
47590;DHT22;33316;52.298;9.056;2023-02-28T07:55:34;1.00;82.80
47590;DHT22;33316;52.298;9.056;2023-02-28T07:58:01;1.10;82.80
47590;DHT22;33316;52.298;9.056;2023-02-28T08:00:27;1.20;82.70
47590;DHT22;33316;52.298;9.056;2023-02-28T08:02:54;1.20;82.60
47590;DHT22;33316;52.298;9.056;2023-02-28T08:05:21;1.30;82.50
47590;DHT22;33316;52.298;9.056;2023-02-28T08:07:48;1.40;82.50
47590;DHT22;33316;52.298;9.056;2023-02-28T08:10:15;1.50;82.80
47590;DHT22;33316;52.298;9.056;2023-02-28T08:12:43;1.50;82.90
47590;DHT22;33316;52.298;9.056;2023-02-28T08:15:10;1.60;82.90
47590;DHT22;33316;52.298;9.056;2023-02-28T08:17:36;1.60;82.80
47590;DHT22;33316;52.298;9.056;2023-02-28T08:20:03;1.70;82.80
47590;DHT22;33316;52.298;9.056;2023-02-28T08:22:30;1.80;82.80
47590;DHT22;33316;52.298;9.056;2023-02-28T08:24:56;1.90;82.80
47590;DHT22;33316;52.298;9.056;2023-02-28T08:27:23;1.90;82.80
47590;DHT22;33316;52.298;9.056;2023-02-28T08:29:51;2.00;82.90
47590;DHT22;33316;52.298;9.056;2023-02-28T08:32:17;2.10;82.60
47590;DHT22;33316;52.298;9.056;2023-02-28T08:34:44;2.10;82.50
47590;DHT22;33316;52.298;9.056;2023-02-28T08:37:10;2.20;82.50
47590;DHT22;33316;52.298;9.056;2023-02-28T08:39:37;2.30;82.50
47590;DHT22;33316;52.298;9.056;2023-02-28T08:42:04;2.40;82.40
47590;DHT22;33316;52.298;9.056;2023-02-28T08:44:30;2.50;82.40
47590;DHT22;33316;52.298;9.056;2023-02-28T08:46:58;2.60;82.40
47590;DHT22;33316;52.298;9.056;2023-02-28T08:49:25;2.60;82.30
47590;DHT22;33316;52.298;9.056;2023-02-28T08:51:51;2.70;82.00
47590;DHT22;33316;52.298;9.056;2023-02-28T08:54:19;2.80;81.60
47590;DHT22;33316;52.298;9.056;2023-02-28T08:56:46;2.90;81.40
47590;DHT22;33316;52.298;9.056;2023-02-28T08:59:13;2.90;81.10
47590;DHT22;33316;52.298;9.056;2023-02-28T09:01:39;3.00;80.60
47590;DHT22;33316;52.298;9.056;2023-02-28T09:04:10;3.00;80.10
47590;DHT22;33316;52.298;9.056;2023-02-28T09:06:37;3.10;79.90
47590;DHT22;33316;52.298;9.056;2023-02-28T09:09:03;3.10;79.80
47590;DHT22;33316;52.298;9.056;2023-02-28T09:11:33;3.20;80.00
47590;DHT22;33316;52.298;9.056;2023-02-28T09:13:59;3.20;79.70
47590;DHT22;33316;52.298;9.056;2023-02-28T09:16:28;3.30;79.30
47590;DHT22;33316;52.298;9.056;2023-02-28T09:18:55;3.40;79.20
47590;DHT22;33316;52.298;9.056;2023-02-28T09:21:23;3.40;78.60
47590;DHT22;33316;52.298;9.056;2023-02-28T09:23:50;3.50;78.40
47590;DHT22;33316;52.298;9.056;2023-02-28T09:26:18;3.50;77.60
47590;DHT22;33316;52.298;9.056;2023-02-28T09:28:45;3.60;77.00
47590;DHT22;33316;52.298;9.056;2023-02-28T09:31:12;3.60;76.50
47590;DHT22;33316;52.298;9.056;2023-02-28T09:33:39;3.60;76.10
47590;DHT22;33316;52.298;9.056;2023-02-28T09:36:06;3.70;76.50
47590;DHT22;33316;52.298;9.056;2023-02-28T09:38:34;3.70;76.60
47590;DHT22;33316;52.298;9.056;2023-02-28T09:41:02;3.80;76.30
47590;DHT22;33316;52.298;9.056;2023-02-28T09:43:31;3.80;75.80
47590;DHT22;33316;52.298;9.056;2023-02-28T09:45:59;3.90;75.30
47590;DHT22;33316;52.298;9.056;2023-02-28T09:48:29;3.90;75.00
47590;DHT22;33316;52.298;9.056;2023-02-28T09:50:59;3.90;74.80
47590;DHT22;33316;52.298;9.056;2023-02-28T09:53:27;3.90;74.20
47590;DHT22;33316;52.298;9.056;2023-02-28T09:56:01;4.00;74.50
47590;DHT22;33316;52.298;9.056;2023-02-28T09:58:30;4.00;74.10
47590;DHT22;33316;52.298;9.056;2023-02-28T10:00:58;4.00;73.40
47590;DHT22;33316;52.298;9.056;2023-02-28T10:03:29;4.10;74.00
47590;DHT22;33316;52.298;9.056;2023-02-28T10:05:57;4.10;74.00
47590;DHT22;33316;52.298;9.056;2023-02-28T10:08:26;4.20;74.00
47590;DHT22;33316;52.298;9.056;2023-02-28T10:10:54;4.30;73.10
47590;DHT22;33316;52.298;9.056;2023-02-28T10:13:27;4.30;72.30
47590;DHT22;33316;52.298;9.056;2023-02-28T10:16:01;4.30;71.60
47590;DHT22;33316;52.298;9.056;2023-02-28T10:18:30;4.40;71.60
47590;DHT22;33316;52.298;9.056;2023-02-28T10:20:57;4.40;71.50
47590;DHT22;33316;52.298;9.056;2023-02-28T10:23:26;4.40;71.40
47590;DHT22;33316;52.298;9.056;2023-02-28T10:25:54;4.40;71.20
47590;DHT22;33316;52.298;9.056;2023-02-28T10:28:21;4.50;71.20
47590;DHT22;33316;52.298;9.056;2023-02-28T10:30:49;4.50;71.10
47590;DHT22;33316;52.298;9.056;2023-02-28T10:33:18;4.50;70.00
47590;DHT22;33316;52.298;9.056;2023-02-28T10:35:45;4.50;70.30
47590;DHT22;33316;52.298;9.056;2023-02-28T10:38:14;4.50;70.70
47590;DHT22;33316;52.298;9.056;2023-02-28T10:40:41;4.60;71.00
47590;DHT22;33316;52.298;9.056;2023-02-28T10:43:18;4.60;71.30
47590;DHT22;33316;52.298;9.056;2023-02-28T10:45:53;4.60;70.70
47590;DHT22;33316;52.298;9.056;2023-02-28T10:48:32;4.60;70.00
47590;DHT22;33316;52.298;9.056;2023-02-28T10:51:01;4.70;70.40
47590;DHT22;33316;52.298;9.056;2023-02-28T10:53:45;4.70;70.20
47590;DHT22;33316;52.298;9.056;2023-02-28T10:56:15;4.70;69.50
47590;DHT22;33316;52.298;9.056;2023-02-28T10:58:46;4.70;69.50
47590;DHT22;33316;52.298;9.056;2023-02-28T11:01:15;4.70;69.10
47590;DHT22;33316;52.298;9.056;2023-02-28T11:03:42;4.80;68.80
47590;DHT22;33316;52.298;9.056;2023-02-28T11:06:12;4.80;68.60
47590;DHT22;33316;52.298;9.056;2023-02-28T11:08:44;4.80;67.50
47590;DHT22;33316;52.298;9.056;2023-02-28T11:11:10;4.90;67.90
47590;DHT22;33316;52.298;9.056;2023-02-28T11:13:37;4.90;67.00
47590;DHT22;33316;52.298;9.056;2023-02-28T11:16:04;5.00;67.60
47590;DHT22;33316;52.298;9.056;2023-02-28T11:18:35;5.00;66.90
47590;DHT22;33316;52.298;9.056;2023-02-28T11:21:04;5.00;65.60
47590;DHT22;33316;52.298;9.056;2023-02-28T11:23:32;4.90;64.40
47590;DHT22;33316;52.298;9.056;2023-02-28T11:26:01;4.90;66.40
47590;DHT22;33316;52.298;9.056;2023-02-28T11:28:30;4.90;66.40
47590;DHT22;33316;52.298;9.056;2023-02-28T11:31:02;5.00;66.60
47590;DHT22;33316;52.298;9.056;2023-02-28T11:33:31;5.00;66.80
47590;DHT22;33316;52.298;9.056;2023-02-28T11:36:00;5.00;65.70
47590;DHT22;33316;52.298;9.056;2023-02-28T11:38:28;5.10;65.60
47590;DHT22;33316;52.298;9.056;2023-02-28T11:43:58;5.20;65.70
47590;DHT22;33316;52.298;9.056;2023-02-28T11:46:30;5.30;63.60
47590;DHT22;33316;52.298;9.056;2023-02-28T11:49:04;5.40;63.00
47590;DHT22;33316;52.298;9.056;2023-02-28T11:51:40;5.40;63.20
47590;DHT22;33316;52.298;9.056;2023-02-28T11:54:13;5.50;63.30
47590;DHT22;33316;52.298;9.056;2023-02-28T11:56:43;5.60;64.40
47590;DHT22;33316;52.298;9.056;2023-02-28T11:59:14;5.60;63.40
47590;DHT22;33316;52.298;9.056;2023-02-28T12:04:35;5.70;63.90
47590;DHT22;33316;52.298;9.056;2023-02-28T12:07:08;5.70;62.60
47590;DHT22;33316;52.298;9.056;2023-02-28T12:09:43;5.70;62.00
47590;DHT22;33316;52.298;9.056;2023-02-28T12:12:15;5.60;61.40
47590;DHT22;33316;52.298;9.056;2023-02-28T12:14:52;5.60;62.90
47590;DHT22;33316;52.298;9.056;2023-02-28T12:17:22;5.60;62.90
47590;DHT22;33316;52.298;9.056;2023-02-28T12:19:53;5.60;63.40
47590;DHT22;33316;52.298;9.056;2023-02-28T12:22:29;5.60;63.20
47590;DHT22;33316;52.298;9.056;2023-02-28T12:27:38;5.60;62.40
47590;DHT22;33316;52.298;9.056;2023-02-28T12:30:09;5.60;62.10
47590;DHT22;33316;52.298;9.056;2023-02-28T12:32:40;5.60;62.70
47590;DHT22;33316;52.298;9.056;2023-02-28T12:35:11;5.60;62.20
47590;DHT22;33316;52.298;9.056;2023-02-28T12:37:40;5.70;61.50
47590;DHT22;33316;52.298;9.056;2023-02-28T12:40:11;5.70;62.10
47590;DHT22;33316;52.298;9.056;2023-02-28T12:42:39;5.70;61.30
47590;DHT22;33316;52.298;9.056;2023-02-28T12:45:08;5.70;61.30
47590;DHT22;33316;52.298;9.056;2023-02-28T12:47:37;5.80;61.40
47590;DHT22;33316;52.298;9.056;2023-02-28T12:50:05;5.80;61.40
47590;DHT22;33316;52.298;9.056;2023-02-28T12:52:35;5.80;59.50
47590;DHT22;33316;52.298;9.056;2023-02-28T12:55:06;5.80;60.10
47590;DHT22;33316;52.298;9.056;2023-02-28T12:57:34;5.80;60.30
47590;DHT22;33316;52.298;9.056;2023-02-28T13:00:08;5.90;61.20
47590;DHT22;33316;52.298;9.056;2023-02-28T13:02:44;5.90;59.30
47590;DHT22;33316;52.298;9.056;2023-02-28T13:05:26;5.90;59.20
47590;DHT22;33316;52.298;9.056;2023-02-28T13:10:41;5.80;58.70
47590;DHT22;33316;52.298;9.056;2023-02-28T13:13:13;5.80;58.50
47590;DHT22;33316;52.298;9.056;2023-02-28T13:15:40;5.90;59.70
47590;DHT22;33316;52.298;9.056;2023-02-28T13:18:23;5.90;59.00
47590;DHT22;33316;52.298;9.056;2023-02-28T13:20:53;5.90;60.40
47590;DHT22;33316;52.298;9.056;2023-02-28T13:23:37;6.00;60.40
47590;DHT22;33316;52.298;9.056;2023-02-28T13:26:05;6.10;61.00
47590;DHT22;33316;52.298;9.056;2023-02-28T13:31:32;6.10;58.20
47590;DHT22;33316;52.298;9.056;2023-02-28T13:34:04;6.20;58.00
47590;DHT22;33316;52.298;9.056;2023-02-28T13:36:32;6.20;60.00
47590;DHT22;33316;52.298;9.056;2023-02-28T13:38:59;6.20;59.70
47590;DHT22;33316;52.298;9.056;2023-02-28T13:41:45;6.20;59.90
47590;DHT22;33316;52.298;9.056;2023-02-28T13:44:13;6.20;60.00
47590;DHT22;33316;52.298;9.056;2023-02-28T13:49:26;6.30;59.70
47590;DHT22;33316;52.298;9.056;2023-02-28T13:51:53;6.30;60.00
47590;DHT22;33316;52.298;9.056;2023-02-28T13:54:24;6.30;59.50
47590;DHT22;33316;52.298;9.056;2023-02-28T13:56:59;6.30;59.00
47590;DHT22;33316;52.298;9.056;2023-02-28T13:59:29;6.30;59.70
47590;DHT22;33316;52.298;9.056;2023-02-28T14:02:01;6.30;59.90
47590;DHT22;33316;52.298;9.056;2023-02-28T14:07:15;6.40;59.80
47590;DHT22;33316;52.298;9.056;2023-02-28T14:09:45;6.40;59.50
47590;DHT22;33316;52.298;9.056;2023-02-28T14:14:55;6.40;59.90
47590;DHT22;33316;52.298;9.056;2023-02-28T14:17:23;6.40;59.20
47590;DHT22;33316;52.298;9.056;2023-02-28T14:19:50;6.40;59.60
47590;DHT22;33316;52.298;9.056;2023-02-28T14:22:21;6.40;60.00
47590;DHT22;33316;52.298;9.056;2023-02-28T14:25:08;6.40;60.40
47590;DHT22;33316;52.298;9.056;2023-02-28T14:27:38;6.50;60.90
47590;DHT22;33316;52.298;9.056;2023-02-28T14:30:26;6.50;60.10
47590;DHT22;33316;52.298;9.056;2023-02-28T14:32:59;6.50;59.80
47590;DHT22;33316;52.298;9.056;2023-02-28T14:35:35;6.50;60.10
47590;DHT22;33316;52.298;9.056;2023-02-28T14:38:18;6.50;60.80
47590;DHT22;33316;52.298;9.056;2023-02-28T14:40:46;6.50;60.80
47590;DHT22;33316;52.298;9.056;2023-02-28T14:43:19;6.60;61.00
47590;DHT22;33316;52.298;9.056;2023-02-28T14:45:48;6.60;60.60
47590;DHT22;33316;52.298;9.056;2023-02-28T14:48:15;6.60;61.00
47590;DHT22;33316;52.298;9.056;2023-02-28T14:50:42;6.60;61.10
47590;DHT22;33316;52.298;9.056;2023-02-28T14:53:15;6.70;61.00
47590;DHT22;33316;52.298;9.056;2023-02-28T14:55:43;6.70;60.80
47590;DHT22;33316;52.298;9.056;2023-02-28T14:58:19;6.70;60.00
47590;DHT22;33316;52.298;9.056;2023-02-28T15:00:49;6.60;59.30
47590;DHT22;33316;52.298;9.056;2023-02-28T15:03:18;6.60;59.90
47590;DHT22;33316;52.298;9.056;2023-02-28T15:05:50;6.60;60.50
47590;DHT22;33316;52.298;9.056;2023-02-28T15:08:17;6.60;61.80
47590;DHT22;33316;52.298;9.056;2023-02-28T15:10:45;6.60;60.80
47590;DHT22;33316;52.298;9.056;2023-02-28T15:13:13;6.60;61.10
47590;DHT22;33316;52.298;9.056;2023-02-28T15:15:41;6.60;60.40
47590;DHT22;33316;52.298;9.056;2023-02-28T15:18:13;6.60;59.80
47590;DHT22;33316;52.298;9.056;2023-02-28T15:20:41;6.50;60.30
47590;DHT22;33316;52.298;9.056;2023-02-28T15:23:08;6.50;60.40
47590;DHT22;33316;52.298;9.056;2023-02-28T15:25:35;6.50;60.90
47590;DHT22;33316;52.298;9.056;2023-02-28T15:28:02;6.50;61.00
47590;DHT22;33316;52.298;9.056;2023-02-28T15:30:29;6.50;60.60
47590;DHT22;33316;52.298;9.056;2023-02-28T15:33:03;6.50;61.00
47590;DHT22;33316;52.298;9.056;2023-02-28T15:35:32;6.50;61.40
47590;DHT22;33316;52.298;9.056;2023-02-28T15:38:00;6.40;61.50
47590;DHT22;33316;52.298;9.056;2023-02-28T15:40:28;6.50;61.50
47590;DHT22;33316;52.298;9.056;2023-02-28T15:45:41;6.40;60.50
47590;DHT22;33316;52.298;9.056;2023-02-28T15:48:13;6.40;61.00
47590;DHT22;33316;52.298;9.056;2023-02-28T15:50:42;6.50;61.30
47590;DHT22;33316;52.298;9.056;2023-02-28T15:53:12;6.50;61.50
47590;DHT22;33316;52.298;9.056;2023-02-28T15:55:39;6.50;61.50
47590;DHT22;33316;52.298;9.056;2023-02-28T15:58:08;6.50;61.00
47590;DHT22;33316;52.298;9.056;2023-02-28T16:00:37;6.50;61.30
47590;DHT22;33316;52.298;9.056;2023-02-28T16:05:47;6.40;61.20
47590;DHT22;33316;52.298;9.056;2023-02-28T16:08:32;6.40;61.40
47590;DHT22;33316;52.298;9.056;2023-02-28T16:10:58;6.40;62.00
47590;DHT22;33316;52.298;9.056;2023-02-28T16:13:25;6.40;61.20
47590;DHT22;33316;52.298;9.056;2023-02-28T16:15:52;6.40;61.80
47590;DHT22;33316;52.298;9.056;2023-02-28T16:18:19;6.40;62.00
47590;DHT22;33316;52.298;9.056;2023-02-28T16:20:47;6.40;62.00
47590;DHT22;33316;52.298;9.056;2023-02-28T16:23:13;6.40;61.90
47590;DHT22;33316;52.298;9.056;2023-02-28T16:25:40;6.40;62.10